Time;durP1;ratioP1;P1;durP2;ratioP2;P2;SDS_P1;SDS_P2;PMS_P1;PMS_P2;Temp;Humidity;BMP_temperature;BMP_pressure;BME280_temperature;BME280_humidity;BME280_pressure;Samples;Min_cycle;Max_cycle;Signal;HPM_P1;HPM_P2
2023/01/15 00:00:56;;;;;;;;;;;;;;;4.46;70.16;95047.22;4168316;28;20010;-59
2023/01/15 00:02:57;;;;;;;;;;;;;;;4.54;69.89;95054.41;4180552;28;20238;-62
2023/01/15 00:05:01;;;;;;;;;;;;;;;4.58;69.56;95063.63;4172308;28;19925;-59
2023/01/15 00:07:03;;;;;;;;;;;;;;;4.48;69.41;95056.53;4164394;28;20285;-59
2023/01/15 00:09:05;;;;;;;;;;;;;;;4.51;69.92;95052.88;4177864;28;20006;-60
2023/01/15 00:11:07;;;;;;;;;;;;;;;4.60;69.48;95056.56;4177403;28;20019;-59
2023/01/15 00:13:09;;;;;;;;;;;;;;;4.50;69.33;95051.25;4177714;28;19968;-61
2023/01/15 00:15:11;;;;;;;;;;;;;;;4.49;69.02;95050.41;4163768;28;19959;-59
2023/01/15 00:17:14;;;;;;;;;;;;;;;4.50;69.16;95044.28;4176932;28;20042;-58
2023/01/15 00:19:16;;;;;;;;;;;;;;;4.49;69.55;95052.16;4178372;28;19991;-61
2023/01/15 00:21:18;;;;;;;;;;;;;;;4.44;69.54;95047.31;4179732;28;19967;-61
2023/01/15 00:27:37;;;;;;;;;;;;;;;4.42;69.70;95046.59;4179920;28;19933;-60
2023/01/15 00:28:01;;;;;;;;;;;;;;;4.48;69.19;95051.34;4176510;28;20203;-61
2023/01/15 00:30:03;;;;;;;;;;;;;;;4.50;69.30;95052.06;4179835;28;19967;-61
2023/01/15 00:32:06;;;;;;;;;;;;;;;4.58;69.14;95050.66;4175876;28;19925;-58
2023/01/15 00:34:08;;;;;;;;;;;;;;;4.45;69.68;95054.19;4172927;28;19933;-61
2023/01/15 00:36:09;;;;;;;;;;;;;;;4.46;69.61;95050.63;4171255;28;20062;-59
2023/01/15 00:38:11;;;;;;;;;;;;;;;4.46;69.51;95047.22;4179100;28;20372;-60
2023/01/15 00:40:13;;;;;;;;;;;;;;;4.51;69.07;95051.13;4178058;28;19929;-61
2023/01/15 00:42:15;;;;;;;;;;;;;;;4.57;69.15;95055.03;4179782;28;19928;-59
2023/01/15 00:44:16;;;;;;;;;;;;;;;4.64;69.30;95055.41;4168929;28;20342;-62
2023/01/15 00:46:18;;;;;;;;;;;;;;;4.64;68.86;95053.63;4173025;28;20335;-60
2023/01/15 00:48:19;;;;;;;;;;;;;;;4.67;68.73;95050.81;4179216;28;20018;-60
2023/01/15 00:50:21;;;;;;;;;;;;;;;4.65;69.15;95044.09;4178289;28;19978;-58
2023/01/15 00:52:22;;;;;;;;;;;;;;;4.71;69.49;95036.69;4171079;28;19933;-60
2023/01/15 00:54:24;;;;;;;;;;;;;;;4.77;69.08;95039.75;4169811;28;20023;-62
2023/01/15 00:56:26;;;;;;;;;;;;;;;4.79;68.34;95043.88;4177496;28;20452;-59
2023/01/15 00:58:27;;;;;;;;;;;;;;;4.82;68.33;95038.47;4176885;28;19933;-60
2023/01/15 01:00:29;;;;;;;;;;;;;;;4.86;68.78;95044.22;4179396;28;19960;-58
2023/01/15 01:02:30;;;;;;;;;;;;;;;4.78;68.16;95041.41;4179301;28;19925;-60
2023/01/15 01:04:32;;;;;;;;;;;;;;;4.80;68.20;95047.31;4176678;28;20451;-60
2023/01/15 01:06:34;;;;;;;;;;;;;;;4.79;67.93;95041.28;4170051;28;19947;-60
2023/01/15 01:08:35;;;;;;;;;;;;;;;4.83;68.72;95050.47;4178094;28;19924;-58
2023/01/15 01:10:37;;;;;;;;;;;;;;;4.87;68.36;95036.34;4177748;28;19929;-60
2023/01/15 01:12:38;;;;;;;;;;;;;;;4.83;67.59;95034.09;4178683;28;19963;-62
2023/01/15 01:14:40;;;;;;;;;;;;;;;4.84;68.50;95039.19;4176619;28;19928;-62
2023/01/15 01:16:42;;;;;;;;;;;;;;;4.80;68.62;95040.34;4166877;28;19924;-60
2023/01/15 01:18:43;;;;;;;;;;;;;;;4.81;68.56;95034.19;4179150;28;20006;-60
2023/01/15 01:21:03;;;;;;;;;;;;;;;4.84;68.44;95031.38;4176295;28;19935;-61
2023/01/15 01:23:05;;;;;;;;;;;;;;;4.84;67.98;95036.59;4178262;28;19925;-61
2023/01/15 01:25:06;;;;;;;;;;;;;;;4.85;68.10;95027.84;4173811;28;19971;-60
2023/01/15 01:27:08;;;;;;;;;;;;;;;4.92;68.24;95034.22;4169713;28;20410;-60
2023/01/15 01:29:13;;;;;;;;;;;;;;;4.97;68.15;95031.28;4178570;28;19929;-59
2023/01/15 01:31:15;;;;;;;;;;;;;;;5.00;67.46;95031.03;4178039;28;20246;-60
2023/01/15 01:33:16;;;;;;;;;;;;;;;5.01;68.08;95029.25;4165173;28;19925;-60
2023/01/15 01:35:18;;;;;;;;;;;;;;;4.97;68.07;95022.66;4167625;28;19925;-59
2023/01/15 01:37:19;;;;;;;;;;;;;;;4.98;67.95;95026.91;4163644;28;19925;-61
2023/01/15 01:39:21;;;;;;;;;;;;;;;4.96;67.66;95029.63;4171209;28;20379;-59
2023/01/15 01:41:22;;;;;;;;;;;;;;;4.99;68.40;95028.56;4166375;28;20507;-60
2023/01/15 01:43:25;;;;;;;;;;;;;;;4.89;67.89;95025.84;4167864;28;20369;-59
2023/01/15 01:45:27;;;;;;;;;;;;;;;4.82;68.31;95020.28;4168574;28;20035;-59
2023/01/15 01:47:29;;;;;;;;;;;;;;;4.87;68.40;95025.13;4161814;28;19936;-58
2023/01/15 01:49:30;;;;;;;;;;;;;;;4.85;68.90;95027.84;4176045;28;19925;-60
2023/01/15 01:51:36;;;;;;;;;;;;;;;4.77;68.46;95030.19;4176802;28;19925;-61
2023/01/15 01:53:38;;;;;;;;;;;;;;;4.79;68.99;95028.28;4176271;28;19925;-60
2023/01/15 01:55:39;;;;;;;;;;;;;;;4.77;69.07;95034.56;4176132;28;20031;-58
2023/01/15 01:57:41;;;;;;;;;;;;;;;4.74;69.06;95029.59;4164393;28;19932;-60
2023/01/15 01:59:43;;;;;;;;;;;;;;;4.64;69.46;95027.69;4172363;28;19928;-61
2023/01/15 02:01:44;;;;;;;;;;;;;;;4.64;69.47;95034.63;4170009;28;20099;-59
2023/01/15 02:03:46;;;;;;;;;;;;;;;4.61;69.46;95027.09;4177992;28;20420;-59
2023/01/15 02:05:51;;;;;;;;;;;;;;;4.68;69.70;95030.88;4171002;28;20326;-62
2023/01/15 02:07:53;;;;;;;;;;;;;;;4.72;69.64;95027.13;4177596;28;20501;-59
2023/01/15 02:09:54;;;;;;;;;;;;;;;4.76;69.05;95025.13;4177529;28;19929;-62
2023/01/15 02:11:57;;;;;;;;;;;;;;;4.80;69.73;95023.97;4166559;28;20008;-62
2023/01/15 02:13:58;;;;;;;;;;;;;;;4.79;68.79;95020.50;4190286;28;19932;-62
2023/01/15 02:16:03;;;;;;;;;;;;;;;4.72;69.74;95021.94;4175326;28;19982;-59
2023/01/15 02:18:08;;;;;;;;;;;;;;;4.76;69.11;95018.16;4176950;28;20011;-60
2023/01/15 02:20:12;;;;;;;;;;;;;;;4.77;69.61;95017.19;4176679;28;19933;-61
2023/01/15 02:22:26;;;;;;;;;;;;;;;4.69;69.63;95022.16;4177012;28;19939;-59
2023/01/15 02:24:34;;;;;;;;;;;;;;;4.75;69.24;95018.25;4176150;28;20035;-61
2023/01/15 02:26:39;;;;;;;;;;;;;;;4.78;69.74;95018.06;4209856;28;19924;-60
2023/01/15 02:28:41;;;;;;;;;;;;;;;4.80;69.00;95016.16;4178377;28;19964;-61
2023/01/15 02:30:43;;;;;;;;;;;;;;;4.82;68.90;95020.28;4166593;28;20011;-61
2023/01/15 02:32:48;;;;;;;;;;;;;;;4.86;68.51;95007.88;4173400;28;20313;-57
2023/01/15 02:34:51;;;;;;;;;;;;;;;4.87;69.10;95012.97;4173312;28;20345;-60
2023/01/15 02:36:56;;;;;;;;;;;;;;;4.87;68.61;95010.38;4164939;28;19947;-60
2023/01/15 02:38:58;;;;;;;;;;;;;;;4.87;68.68;95010.38;4170074;28;19929;-58
2023/01/15 02:41:00;;;;;;;;;;;;;;;4.89;68.72;95008.50;4208694;28;19953;-59
2023/01/15 02:43:01;;;;;;;;;;;;;;;4.83;69.03;94998.56;4176607;28;19963;-61
2023/01/15 02:45:03;;;;;;;;;;;;;;;4.70;69.05;95005.63;4168528;28;19964;-61
2023/01/15 02:47:05;;;;;;;;;;;;;;;4.69;69.36;94998.81;4208693;28;20539;-59
2023/01/15 02:49:07;;;;;;;;;;;;;;;4.70;69.59;95003.88;4177589;28;20313;-61
2023/01/15 02:51:13;;;;;;;;;;;;;;;4.75;69.74;95005.28;4200247;28;19925;-62
2023/01/15 02:53:16;;;;;;;;;;;;;;;4.75;69.43;95000.09;4162055;28;19963;-59
2023/01/15 02:55:21;;;;;;;;;;;;;;;4.53;69.98;95004.31;4176720;28;19975;-62
2023/01/15 02:57:23;;;;;;;;;;;;;;;4.13;72.00;95011.59;4164606;28;19937;-61
2023/01/15 02:59:26;;;;;;;;;;;;;;;3.65;73.32;95007.28;4170537;28;19987;-62
2023/01/15 03:01:35;;;;;;;;;;;;;;;3.49;74.33;95002.34;4174585;28;19951;-59
2023/01/15 03:03:46;;;;;;;;;;;;;;;3.51;74.32;95002.22;4171464;28;19929;-61
2023/01/15 03:05:51;;;;;;;;;;;;;;;3.71;74.89;95000.84;4178197;28;20283;-58
2023/01/15 03:07:58;;;;;;;;;;;;;;;3.88;73.73;95003.03;4172438;28;19928;-59
2023/01/15 03:09:59;;;;;;;;;;;;;;;3.85;73.40;95005.84;4175459;28;19925;-60
2023/01/15 03:12:22;;;;;;;;;;;;;;;3.79;73.70;95008.88;4175675;28;20313;-59
2023/01/15 03:14:30;;;;;;;;;;;;;;;3.66;73.66;95012.34;4162698;28;19925;-59
2023/01/15 03:16:37;;;;;;;;;;;;;;;3.65;73.05;95002.91;4198140;28;19947;-60
2023/01/15 03:21:04;;;;;;;;;;;;;;;3.69;73.18;95009.53;4168168;28;19929;-62
2023/01/15 03:23:08;;;;;;;;;;;;;;;3.71;72.68;95003.41;4159139;28;20404;-59
2023/01/15 03:25:11;;;;;;;;;;;;;;;3.82;72.28;95001.69;4162906;28;20408;-58
2023/01/15 03:27:12;;;;;;;;;;;;;;;3.93;71.64;95003.50;4168387;28;20568;-59
2023/01/15 03:29:14;;;;;;;;;;;;;;;3.85;71.34;95001.50;4163477;28;19936;-61
2023/01/15 03:31:15;;;;;;;;;;;;;;;3.80;71.99;95002.75;4202595;28;20320;-58
2023/01/15 03:33:17;;;;;;;;;;;;;;;3.95;71.75;95006.81;4173984;28;19974;-59
2023/01/15 03:35:57;;;;;;;;;;;;;;;4.12;71.38;95009.97;4167383;28;19932;-59
2023/01/15 03:37:59;;;;;;;;;;;;;;;4.19;69.17;95009.38;4169352;28;19925;-60
2023/01/15 03:40:01;;;;;;;;;;;;;;;4.19;69.36;95006.78;4156306;28;19936;-59
2023/01/15 03:42:06;;;;;;;;;;;;;;;4.13;69.44;95006.41;4164515;28;19932;-62
2023/01/15 03:44:21;;;;;;;;;;;;;;;4.21;70.11;95001.50;4172373;28;20399;-59
2023/01/15 03:46:26;;;;;;;;;;;;;;;4.07;70.03;95018.09;4171191;28;19929;-59
2023/01/15 03:48:33;;;;;;;;;;;;;;;4.05;69.70;95017.38;4170474;28;19932;-61
2023/01/15 03:50:54;;;;;;;;;;;;;;;4.18;70.52;95007.75;4205406;28;19924;-61
2023/01/15 03:53:15;;;;;;;;;;;;;;;4.36;69.20;95010.75;4165283;28;20023;-60
2023/01/15 03:55:16;;;;;;;;;;;;;;;4.49;69.21;95005.47;4203569;28;19932;-60
2023/01/15 03:57:23;;;;;;;;;;;;;;;4.60;68.76;95008.09;4176679;28;19925;-58
2023/01/15 03:59:31;;;;;;;;;;;;;;;4.71;68.20;94999.50;4175565;28;19932;-59
2023/01/15 04:01:34;;;;;;;;;;;;;;;4.66;67.01;95005.03;4177045;28;19925;-62
2023/01/15 04:03:35;;;;;;;;;;;;;;;4.62;66.95;95007.97;4176719;28;19931;-60
2023/01/15 04:05:37;;;;;;;;;;;;;;;4.58;67.09;95003.97;4162085;28;19956;-60
2023/01/15 04:07:39;;;;;;;;;;;;;;;4.63;67.23;95007.88;4162099;28;19925;-59
2023/01/15 04:12:00;;;;;;;;;;;;;;;4.77;67.56;95004.22;4190451;28;19928;-60
2023/01/15 04:14:02;;;;;;;;;;;;;;;4.80;67.09;94998.81;4173803;28;20292;-60
2023/01/15 04:16:03;;;;;;;;;;;;;;;4.85;67.03;95006.25;4167166;28;20312;-62
2023/01/15 04:18:05;;;;;;;;;;;;;;;4.70;66.72;95003.88;4166476;28;20009;-61
2023/01/15 04:20:07;;;;;;;;;;;;;;;4.71;67.60;95005.53;4162375;28;20325;-62
2023/01/15 04:22:09;;;;;;;;;;;;;;;4.75;66.46;95003.50;4178403;28;20399;-60
2023/01/15 04:24:11;;;;;;;;;;;;;;;4.68;66.80;95005.75;4178040;28;19925;-58
2023/01/15 04:26:13;;;;;;;;;;;;;;;4.66;66.23;94996.44;4178576;28;20366;-60
2023/01/15 04:28:14;;;;;;;;;;;;;;;4.61;66.58;95004.56;4179178;28;20269;-61
2023/01/15 04:30:16;;;;;;;;;;;;;;;4.66;67.33;95001.63;4172477;28;20032;-59
2023/01/15 04:32:17;;;;;;;;;;;;;;;4.56;67.18;95011.03;4172506;28;20333;-60
2023/01/15 04:34:19;;;;;;;;;;;;;;;4.16;67.17;95014.81;4178840;28;20410;-60
2023/01/15 04:36:20;;;;;;;;;;;;;;;4.00;68.32;95014.25;4178306;28;19933;-60
2023/01/15 04:38:22;;;;;;;;;;;;;;;3.81;69.15;95013.03;4164999;28;19929;-60
2023/01/15 04:45:04;;;;;;;;;;;;;;;4.06;69.21;95009.47;4171221;28;19933;-60
2023/01/15 04:47:06;;;;;;;;;;;;;;;4.24;68.16;95014.25;4175190;28;19975;-59
2023/01/15 04:49:08;;;;;;;;;;;;;;;4.35;68.05;95009.09;4166289;28;19932;-60
2023/01/15 04:51:10;;;;;;;;;;;;;;;4.53;68.20;95009.50;4173253;28;19925;-62
2023/01/15 04:53:11;;;;;;;;;;;;;;;4.63;66.92;95014.84;4170198;28;19998;-59
2023/01/15 04:55:13;;;;;;;;;;;;;;;4.69;66.98;95014.38;4178652;28;19968;-60
2023/01/15 04:57:14;;;;;;;;;;;;;;;4.76;67.10;95012.16;4179326;28;19929;-61
2023/01/15 04:59:17;;;;;;;;;;;;;;;4.78;67.38;95018.06;4178945;28;20016;-60
2023/01/15 05:01:18;;;;;;;;;;;;;;;4.81;66.77;95018.63;4179305;28;20019;-60
2023/01/15 05:03:20;;;;;;;;;;;;;;;4.83;66.80;95019.34;4179057;28;19924;-61
2023/01/15 05:05:21;;;;;;;;;;;;;;;4.84;66.67;95013.22;4174779;28;20409;-59
2023/01/15 05:07:23;;;;;;;;;;;;;;;4.88;67.29;95008.59;4176679;28;19928;-61
2023/01/15 05:09:25;;;;;;;;;;;;;;;4.90;67.26;95015.34;4175729;28;20006;-59
2023/01/15 05:11:26;;;;;;;;;;;;;;;4.93;67.21;95017.69;4168943;28;20364;-60
2023/01/15 05:13:29;;;;;;;;;;;;;;;4.93;66.87;95016.88;4179191;28;19959;-61
2023/01/15 05:15:30;;;;;;;;;;;;;;;4.92;67.42;95016.03;4168380;28;19929;-62
2023/01/15 05:17:32;;;;;;;;;;;;;;;4.90;67.41;95011.91;4178397;28;19925;-60
2023/01/15 05:19:33;;;;;;;;;;;;;;;4.89;66.91;95012.88;4171986;28;19925;-59
2023/01/15 05:21:36;;;;;;;;;;;;;;;4.87;67.22;95022.53;4175093;28;19932;-62
2023/01/15 05:23:37;;;;;;;;;;;;;;;4.86;67.23;95013.94;4168391;28;19990;-60
2023/01/15 05:25:39;;;;;;;;;;;;;;;4.85;67.15;95014.03;4169000;28;20397;-61
2023/01/15 05:27:41;;;;;;;;;;;;;;;4.83;67.30;95013.31;4173979;28;19928;-61
2023/01/15 05:29:43;;;;;;;;;;;;;;;4.82;67.63;95022.03;4175955;28;19925;-60
2023/01/15 05:31:44;;;;;;;;;;;;;;;4.80;67.45;95022.19;4178928;28;19924;-59
2023/01/15 05:33:46;;;;;;;;;;;;;;;4.81;67.12;95015.22;4178641;28;20058;-61
2023/01/15 05:35:48;;;;;;;;;;;;;;;4.79;67.01;95023.09;4179275;28;19928;-63
2023/01/15 05:37:49;;;;;;;;;;;;;;;4.81;67.59;95016.03;4162422;28;20043;-59
2023/01/15 05:39:51;;;;;;;;;;;;;;;4.77;67.96;95018.97;4167703;28;20364;-60
2023/01/15 05:41:52;;;;;;;;;;;;;;;4.78;67.54;95015.47;4178887;28;19925;-61
2023/01/15 05:43:54;;;;;;;;;;;;;;;4.79;67.49;95017.09;4178946;28;19928;-61
2023/01/15 05:46:00;;;;;;;;;;;;;;;4.76;67.47;95015.56;4178363;28;19970;-61
2023/01/15 05:48:01;;;;;;;;;;;;;;;4.77;67.25;95024.16;4173542;28;19924;-64
2023/01/15 05:50:03;;;;;;;;;;;;;;;4.79;68.01;95024.88;4173327;28;20379;-63
2023/01/15 05:52:05;;;;;;;;;;;;;;;4.82;67.71;95025.47;4164595;28;20302;-61
2023/01/15 05:54:07;;;;;;;;;;;;;;;4.83;67.92;95024.53;4177121;28;20320;-63
2023/01/15 05:56:09;;;;;;;;;;;;;;;4.88;67.22;95021.59;4165635;28;20395;-60
2023/01/15 05:58:10;;;;;;;;;;;;;;;4.93;67.00;95030.69;4178570;28;19932;-59
2023/01/15 06:00:12;;;;;;;;;;;;;;;4.91;66.96;95021.38;4178534;28;19982;-62
2023/01/15 06:02:13;;;;;;;;;;;;;;;4.92;67.13;95029.00;4165024;28;20043;-63
2023/01/15 06:04:19;;;;;;;;;;;;;;;4.91;67.79;95031.75;4177784;28;19944;-60
2023/01/15 06:06:21;;;;;;;;;;;;;;;4.93;67.33;95033.28;4171677;28;19982;-60
2023/01/15 06:08:22;;;;;;;;;;;;;;;4.96;66.89;95040.00;4168233;28;19976;-60
2023/01/15 06:10:24;;;;;;;;;;;;;;;4.97;67.37;95035.63;4160391;28;19935;-60
2023/01/15 06:12:25;;;;;;;;;;;;;;;5.00;67.47;95030.22;4177370;28;20034;-62
2023/01/15 06:14:27;;;;;;;;;;;;;;;5.01;67.30;95024.91;4177770;28;20357;-63
2023/01/15 06:16:28;;;;;;;;;;;;;;;5.02;66.56;95036.94;4168170;28;19925;-62
2023/01/15 06:18:32;;;;;;;;;;;;;;;5.02;66.67;95030.94;4174341;28;19928;-62
2023/01/15 06:20:37;;;;;;;;;;;;;;;5.02;66.48;95025.75;4164556;28;19932;-59
2023/01/15 06:22:38;;;;;;;;;;;;;;;5.01;66.40;95022.31;4177418;28;20020;-61
2023/01/15 06:24:40;;;;;;;;;;;;;;;5.03;65.95;95022.19;4177402;28;19986;-62
2023/01/15 06:26:41;;;;;;;;;;;;;;;5.01;65.98;95027.50;4161105;28;19925;-61
2023/01/15 06:28:43;;;;;;;;;;;;;;;4.99;66.46;95029.41;4168522;28;19932;-60
2023/01/15 06:30:45;;;;;;;;;;;;;;;4.99;66.14;95020.75;4167914;28;19925;-60
2023/01/15 06:32:46;;;;;;;;;;;;;;;5.01;66.09;95024.91;4174822;28;19932;-65
2023/01/15 06:34:48;;;;;;;;;;;;;;;5.03;65.78;95025.59;4175068;28;20305;-61
2023/01/15 06:36:50;;;;;;;;;;;;;;;5.02;66.15;95030.94;4160805;28;19983;-62
2023/01/15 06:38:51;;;;;;;;;;;;;;;5.02;65.98;95023.97;4160880;28;19976;-64
2023/01/15 06:40:53;;;;;;;;;;;;;;;5.03;66.24;95025.59;4163069;28;19925;-62
2023/01/15 06:47:38;;;;;;;;;;;;;;;5.09;65.72;95025.13;4163310;28;20033;-62
2023/01/15 06:49:39;;;;;;;;;;;;;;;5.12;65.53;95029.28;4176088;28;19971;-63
2023/01/15 06:51:41;;;;;;;;;;;;;;;5.14;65.79;95032.56;4177044;28;19948;-61
2023/01/15 06:53:42;;;;;;;;;;;;;;;5.11;65.26;95032.81;4174264;28;19924;-61
2023/01/15 06:55:44;;;;;;;;;;;;;;;5.13;65.45;95025.75;4163856;28;19936;-61
2023/01/15 06:57:45;;;;;;;;;;;;;;;5.15;65.09;95021.25;4162840;28;20394;-61
2023/01/15 06:59:47;;;;;;;;;;;;;;;5.15;65.39;95023.84;4161481;28;19925;-63
2023/01/15 07:01:49;;;;;;;;;;;;;;;5.20;65.50;95020.91;4171415;28;19932;-62
2023/01/15 07:03:51;;;;;;;;;;;;;;;5.23;64.95;95020.69;4177305;28;20416;-59
2023/01/15 07:05:52;;;;;;;;;;;;;;;5.25;64.71;95023.97;4170665;28;19968;-59
2023/01/15 07:07:54;;;;;;;;;;;;;;;5.31;65.07;95024.34;4173982;28;19978;-61
2023/01/15 07:09:55;;;;;;;;;;;;;;;5.34;64.96;95026.69;4174937;28;19933;-63
2023/01/15 07:11:57;;;;;;;;;;;;;;;5.38;64.72;95034.22;4174560;28;19924;-61
2023/01/15 07:14:04;;;;;;;;;;;;;;;5.36;64.59;95026.56;4176816;28;20392;-62
2023/01/15 07:16:25;;;;;;;;;;;;;;;5.39;64.16;95028.09;4170546;28;19929;-61
2023/01/15 07:18:28;;;;;;;;;;;;;;;5.43;64.37;95026.91;4176536;28;19936;-62
2023/01/15 07:20:29;;;;;;;;;;;;;;;5.49;64.28;95031.63;4166472;28;19928;-61
2023/01/15 07:22:31;;;;;;;;;;;;;;;5.50;64.08;95038.47;4176628;28;20008;-59
2023/01/15 07:24:32;;;;;;;;;;;;;;;5.54;64.32;95032.91;4175858;28;19940;-61
2023/01/15 07:26:34;;;;;;;;;;;;;;;5.58;63.62;95038.69;4163919;28;19925;-59
2023/01/15 07:28:35;;;;;;;;;;;;;;;5.56;63.93;95029.38;4174264;28;20357;-60
2023/01/15 07:30:37;;;;;;;;;;;;;;;5.58;63.50;95036.09;4170553;28;19926;-61
2023/01/15 07:32:38;;;;;;;;;;;;;;;5.59;63.96;95042.13;4164617;28;19949;-61
2023/01/15 07:34:40;;;;;;;;;;;;;;;5.63;63.54;95038.34;4174337;28;20136;-59
2023/01/15 07:36:41;;;;;;;;;;;;;;;5.61;64.28;95035.84;4164351;28;19948;-63
2023/01/15 07:38:43;;;;;;;;;;;;;;;5.68;63.76;95044.03;4174536;28;19927;-60
2023/01/15 07:49:44;;;;;;;;;;;;;;;5.70;63.63;95039.50;4165885;28;19960;-59
2023/01/15 07:50:09;;;;;;;;;;;;;;;5.80;63.49;95043.03;4169371;28;19929;-63
2023/01/15 07:52:12;;;;;;;;;;;;;;;5.60;63.50;95039.41;4162537;28;20008;-60
2023/01/15 07:54:13;;;;;;;;;;;;;;;5.58;63.63;95033.50;4175436;28;19925;-59
2023/01/15 07:56:15;;;;;;;;;;;;;;;5.67;63.73;95030.19;4175932;28;19991;-61
2023/01/15 07:58:16;;;;;;;;;;;;;;;5.84;63.64;95030.63;4180519;28;19929;-60
2023/01/15 08:00:19;;;;;;;;;;;;;;;6.01;63.04;95024.13;4169442;28;20385;-61
2023/01/15 08:02:21;;;;;;;;;;;;;;;6.14;62.07;95023.00;4176335;28;20024;-60
2023/01/15 08:04:22;;;;;;;;;;;;;;;6.27;61.95;95022.81;4163900;28;19983;-62
2023/01/15 08:06:24;;;;;;;;;;;;;;;6.42;61.10;95023.34;4170164;28;20269;-59
2023/01/15 08:08:25;;;;;;;;;;;;;;;6.21;59.82;95022.50;4179763;28;19932;-63
2023/01/15 08:10:27;;;;;;;;;;;;;;;5.75;60.85;95025.19;4178654;28;19929;-60
2023/01/15 08:17:09;;;;;;;;;;;;;;;5.27;62.11;95033.31;4179427;28;19978;-61
2023/01/15 08:19:10;;;;;;;;;;;;;;;5.32;62.52;95031.16;4165633;28;19971;-59
2023/01/15 08:21:12;;;;;;;;;;;;;;;5.45;61.82;95036.25;4177121;28;19925;-58
2023/01/15 08:23:14;;;;;;;;;;;;;;;5.55;61.81;95041.56;4177192;28;20372;-59
2023/01/15 08:25:19;;;;;;;;;;;;;;;5.62;60.87;95042.72;4171681;28;20035;-58
2023/01/15 08:27:21;;;;;;;;;;;;;;;5.64;61.26;95037.41;4179278;28;20376;-60
2023/01/15 08:29:22;;;;;;;;;;;;;;;5.74;61.87;95043.50;4179308;28;19995;-60
2023/01/15 08:31:24;;;;;;;;;;;;;;;6.01;61.34;95048.34;4170945;28;19925;-60
2023/01/15 08:33:25;;;;;;;;;;;;;;;6.30;60.51;95043.41;4162754;28;20354;-60
2023/01/15 08:35:27;;;;;;;;;;;;;;;6.22;59.31;95045.78;4178142;28;19972;-61
2023/01/15 08:37:28;;;;;;;;;;;;;;;6.27;59.54;95040.22;4177310;28;20539;-60
2023/01/15 08:39:30;;;;;;;;;;;;;;;6.41;59.51;95042.53;4172882;28;19991;-62
2023/01/15 08:41:32;;;;;;;;;;;;;;;6.50;59.48;95041.78;4167181;28;19925;-62
2023/01/15 08:43:33;;;;;;;;;;;;;;;6.64;59.12;95040.63;4166957;28;19972;-62
2023/01/15 08:45:35;;;;;;;;;;;;;;;6.77;58.86;95037.84;4169713;28;19979;-61
2023/01/15 08:47:36;;;;;;;;;;;;;;;6.79;58.04;95033.31;4177616;28;19946;-62
2023/01/15 08:49:38;;;;;;;;;;;;;;;6.76;58.03;95038.78;4174523;28;19940;-62
2023/01/15 08:51:39;;;;;;;;;;;;;;;6.38;58.47;95040.16;4167502;28;19994;-60
2023/01/15 08:53:41;;;;;;;;;;;;;;;6.28;59.04;95039.25;4177965;28;19931;-60
2023/01/15 08:55:42;;;;;;;;;;;;;;;6.14;59.48;95041.19;4178589;28;20067;-62
2023/01/15 08:57:44;;;;;;;;;;;;;;;6.33;59.19;95047.53;4179785;28;19932;-62
2023/01/15 08:59:46;;;;;;;;;;;;;;;6.57;58.99;95037.69;4173205;28;19983;-62
2023/01/15 09:01:47;;;;;;;;;;;;;;;6.87;58.61;95033.50;4172072;28;19936;-60
2023/01/15 09:03:49;;;;;;;;;;;;;;;7.00;57.69;95033.31;4167077;28;19925;-63
2023/01/15 09:05:51;;;;;;;;;;;;;;;6.88;57.00;95034.34;4164396;28;20278;-60
2023/01/15 09:07:52;;;;;;;;;;;;;;;6.76;57.47;95042.22;4172918;28;19929;-61
2023/01/15 09:09:54;;;;;;;;;;;;;;;6.71;57.73;95041.78;4171579;28;19925;-61
2023/01/15 09:11:55;;;;;;;;;;;;;;;6.83;57.56;95039.94;4166400;28;20012;-62
2023/01/15 09:13:57;;;;;;;;;;;;;;;6.86;56.84;95036.25;4162590;28;19978;-62
2023/01/15 09:15:59;;;;;;;;;;;;;;;6.67;57.39;95019.56;4168854;28;19928;-60
2023/01/15 09:18:01;;;;;;;;;;;;;;;6.73;58.26;95029.47;4169418;28;19968;-59
2023/01/15 09:20:03;;;;;;;;;;;;;;;6.86;57.21;95024.06;4163234;28;20024;-61
2023/01/15 09:22:05;;;;;;;;;;;;;;;6.56;57.57;95019.63;4174924;28;20362;-63
2023/01/15 09:24:06;;;;;;;;;;;;;;;6.68;57.97;95021.19;4169799;28;19936;-61
2023/01/15 09:26:20;;;;;;;;;;;;;;;6.22;58.87;95024.16;4178460;28;20012;-62
2023/01/15 09:28:21;;;;;;;;;;;;;;;6.17;59.00;95021.91;4176218;28;19929;-62
2023/01/15 09:30:23;;;;;;;;;;;;;;;6.10;59.76;95018.16;4178333;28;19994;-61
2023/01/15 09:32:24;;;;;;;;;;;;;;;6.36;59.58;95018.66;4169925;28;20011;-62
2023/01/15 09:34:26;;;;;;;;;;;;;;;6.64;59.18;95005.97;4174908;28;19924;-60
2023/01/15 09:36:31;;;;;;;;;;;;;;;6.87;58.48;95009.25;4174107;28;19929;-61
2023/01/15 09:38:34;;;;;;;;;;;;;;;7.01;58.22;95001.09;4168587;28;19948;-63
2023/01/15 09:40:39;;;;;;;;;;;;;;;7.15;57.96;94992.13;4167998;28;19972;-61
2023/01/15 09:42:51;;;;;;;;;;;;;;;7.21;57.28;94991.59;4172530;28;19932;-60
2023/01/15 09:44:59;;;;;;;;;;;;;;;7.10;57.53;94989.09;4165034;28;19991;-60
2023/01/15 09:47:08;;;;;;;;;;;;;;;7.12;57.96;94990.59;4172064;28;20352;-62
2023/01/15 09:49:15;;;;;;;;;;;;;;;7.17;58.08;94995.41;4178382;28;20396;-60
2023/01/15 09:51:23;;;;;;;;;;;;;;;7.13;57.31;94984.41;4173287;28;19925;-60
2023/01/15 09:53:24;;;;;;;;;;;;;;;6.98;57.92;94981.34;4169850;28;19925;-61
2023/01/15 09:55:27;;;;;;;;;;;;;;;6.96;57.81;94967.63;4166655;28;19925;-60
2023/01/15 09:57:29;;;;;;;;;;;;;;;6.98;57.58;94968.31;4174462;28;19924;-61
2023/01/15 09:59:34;;;;;;;;;;;;;;;7.06;58.30;94966.84;4173680;28;20050;-63
2023/01/15 10:01:36;;;;;;;;;;;;;;;7.07;57.48;94961.50;4163822;28;20235;-61
2023/01/15 10:03:40;;;;;;;;;;;;;;;7.10;57.93;94963.03;4174156;28;19929;-61
2023/01/15 10:05:43;;;;;;;;;;;;;;;7.23;59.25;94949.75;4171078;28;20361;-61
2023/01/15 10:07:58;;;;;;;;;;;;;;;7.20;57.40;94943.03;4192451;28;19925;-61
2023/01/15 10:10:02;;;;;;;;;;;;;;;7.19;57.64;94946.59;4162536;28;19925;-61
2023/01/15 10:12:36;;;;;;;;;;;;;;;7.16;58.06;94936.44;4192673;28;19925;-62
2023/01/15 10:14:49;;;;;;;;;;;;;;;7.15;57.72;94934.81;4168655;28;19925;-63
2023/01/15 10:16:51;;;;;;;;;;;;;;;7.19;58.29;94930.97;4175845;28;19925;-61
2023/01/15 10:18:52;;;;;;;;;;;;;;;7.10;57.93;94922.16;4174539;28;19975;-58
2023/01/15 10:20:54;;;;;;;;;;;;;;;7.05;58.41;94926.94;4173330;28;19956;-63
2023/01/15 10:23:04;;;;;;;;;;;;;;;6.96;58.79;94922.53;4167596;28;19925;-63
2023/01/15 10:25:09;;;;;;;;;;;;;;;6.96;59.25;94931.16;4172401;28;20304;-61
2023/01/15 10:27:23;;;;;;;;;;;;;;;7.02;58.99;94913.38;4176362;28;20389;-63
2023/01/15 10:29:43;;;;;;;;;;;;;;;7.12;59.20;94911.59;4177137;28;19932;-61
2023/01/15 10:31:52;;;;;;;;;;;;;;;7.17;58.55;94906.84;4177946;28;20397;-61
2023/01/15 10:34:05;;;;;;;;;;;;;;;6.98;58.82;94912.81;4170304;28;19929;-60
2023/01/15 10:36:12;;;;;;;;;;;;;;;6.93;59.15;94899.34;4171838;28;19999;-61
2023/01/15 10:38:25;;;;;;;;;;;;;;;7.00;59.24;94905.69;4175071;28;19964;-60
2023/01/15 10:40:36;;;;;;;;;;;;;;;7.02;58.54;94888.13;4168147;28;19929;-63
2023/01/15 10:42:39;;;;;;;;;;;;;;;7.00;58.54;94887.44;4167644;28;19928;-60
2023/01/15 10:44:51;;;;;;;;;;;;;;;7.00;58.53;94884.03;4162723;28;20016;-62
2023/01/15 10:46:55;;;;;;;;;;;;;;;7.02;58.14;94879.50;4189497;28;19928;-63
2023/01/15 10:49:01;;;;;;;;;;;;;;;7.13;58.61;94871.56;4161378;28;20301;-62
2023/01/15 10:51:05;;;;;;;;;;;;;;;7.20;57.89;94867.47;4172783;28;19976;-63
2023/01/15 10:53:26;;;;;;;;;;;;;;;7.30;57.53;94870.09;4168655;28;19925;-62
2023/01/15 10:55:35;;;;;;;;;;;;;;;7.28;58.14;94862.41;4165381;28;19931;-62
2023/01/15 10:57:39;;;;;;;;;;;;;;;7.37;58.19;94866.81;4174910;28;19924;-60
2023/01/15 10:59:46;;;;;;;;;;;;;;;7.49;58.01;94864.09;4173024;28;19925;-62
2023/01/15 11:01:50;;;;;;;;;;;;;;;7.43;57.68;94851.59;4170730;28;19929;-62
2023/01/15 11:03:52;;;;;;;;;;;;;;;7.41;57.86;94853.53;4163697;28;19925;-63
2023/01/15 11:05:54;;;;;;;;;;;;;;;7.41;57.93;94849.13;4176641;28;19925;-62
2023/01/15 11:07:55;;;;;;;;;;;;;;;7.42;57.86;94842.97;4176584;28;20399;-63
2023/01/15 11:10:18;;;;;;;;;;;;;;;7.28;57.93;94843.34;4164666;28;19971;-63
2023/01/15 11:19:37;;;;;;;;;;;;;;;7.82;56.36;94828.13;4176922;28;19929;-62
2023/01/15 11:21:39;;;;;;;;;;;;;;;8.07;56.23;94831.94;4176581;28;19932;-62
2023/01/15 11:23:41;;;;;;;;;;;;;;;8.22;55.04;94825.31;4163223;28;19925;-61
2023/01/15 11:25:56;;;;;;;;;;;;;;;8.11;55.18;94826.31;4168291;28;19964;-60
2023/01/15 11:27:58;;;;;;;;;;;;;;;8.18;55.03;94819.56;4160190;28;19968;-61